Time;durP1;ratioP1;P1;durP2;ratioP2;P2;SDS_P1;SDS_P2;PMS_P1;PMS_P2;Temp;Humidity;BMP_temperature;BMP_pressure;BME280_temperature;BME280_humidity;BME280_pressure;Samples;Min_cycle;Max_cycle;Signal;HPM_P1;HPM_P2
2021/04/02 00:00:28;;;;;;;7.63;2.77;;;4.50;86.10;;;;;;5109741;28;20390;-66
2021/04/02 00:02:54;;;;;;;6.10;2.10;;;4.50;86.30;;;;;;5109741;28;20323;-66
2021/04/02 00:05:20;;;;;;;8.93;2.20;;;4.60;86.40;;;;;;5110418;28;20309;-65
2021/04/02 00:07:47;;;;;;;7.43;2.30;;;4.50;86.40;;;;;;5109011;28;20047;-66
2021/04/02 00:10:17;;;;;;;8.37;2.27;;;4.60;86.50;;;;;;5110226;28;20852;-66
2021/04/02 00:12:44;;;;;;;9.90;2.40;;;4.60;86.50;;;;;;5110090;28;20812;-65
2021/04/02 00:15:13;;;;;;;8.27;2.13;;;4.60;86.40;;;;;;5110055;28;20789;-66
2021/04/02 00:17:41;;;;;;;7.93;2.50;;;4.60;86.50;;;;;;5110279;28;20319;-65
2021/04/02 00:20:09;;;;;;;8.50;2.60;;;4.60;86.60;;;;;;5109476;28;20305;-66
2021/04/02 00:22:35;;;;;;;11.73;2.53;;;4.60;86.50;;;;;;5111266;28;20320;-65
2021/04/02 00:25:01;;;;;;;8.87;3.00;;;4.60;86.80;;;;;;5110310;28;20335;-66
2021/04/02 00:27:27;;;;;;;10.20;2.53;;;4.60;87.10;;;;;;5109866;28;20861;-66
2021/04/02 00:29:53;;;;;;;6.13;2.10;;;4.60;87.30;;;;;;5109960;28;20055;-66
2021/04/02 00:32:19;;;;;;;6.40;2.50;;;4.50;88.60;;;;;;5110017;28;20134;-66
2021/04/02 00:34:44;;;;;;;8.80;2.43;;;4.50;88.00;;;;;;5108515;28;20849;-66
2021/04/02 00:37:10;;;;;;;10.93;3.23;;;4.50;88.00;;;;;;5109712;28;20040;-65
2021/04/02 00:39:36;;;;;;;9.97;3.07;;;4.50;88.50;;;;;;5109754;28;20079;-66
2021/04/02 00:42:02;;;;;;;13.03;3.03;;;4.40;88.30;;;;;;5108486;28;20050;-65
2021/04/02 00:44:29;;;;;;;12.50;3.67;;;4.50;89.00;;;;;;5109368;28;20055;-66
2021/04/02 00:46:55;;;;;;;8.07;3.00;;;4.50;89.50;;;;;;5108972;28;20358;-66
2021/04/02 00:49:21;;;;;;;11.00;3.70;;;4.50;89.70;;;;;;5109353;28;20301;-65
2021/04/02 00:51:47;;;;;;;13.07;3.50;;;4.50;89.50;;;;;;5109404;28;20302;-66
2021/04/02 00:54:12;;;;;;;10.53;3.33;;;4.50;90.10;;;;;;5110432;28;20416;-66
2021/04/02 00:56:38;;;;;;;8.47;3.23;;;4.50;89.80;;;;;;5109420;28;20096;-65
2021/04/02 00:59:05;;;;;;;10.77;3.67;;;4.50;89.70;;;;;;5110305;28;20079;-65
2021/04/02 01:01:31;;;;;;;14.87;4.40;;;4.50;90.00;;;;;;5109579;28;20039;-65
2021/04/02 01:03:57;;;;;;;17.40;4.87;;;4.50;90.10;;;;;;5109096;28;20305;-65
2021/04/02 01:06:25;;;;;;;11.77;4.13;;;4.50;90.10;;;;;;5110250;28;20289;-65
2021/04/02 01:08:51;;;;;;;11.73;3.60;;;4.50;90.40;;;;;;5109309;28;20495;-65
2021/04/02 01:11:20;;;;;;;14.30;5.50;;;4.50;90.50;;;;;;5108117;28;20312;-65
2021/04/02 01:13:48;;;;;;;12.53;5.63;;;4.60;90.60;;;;;;5108732;28;20491;-65
2021/04/02 01:16:18;;;;;;;11.47;4.90;;;4.50;90.60;;;;;;5108437;28;20297;-65
2021/04/02 01:19:06;;;;;;;12.90;4.13;;;4.50;90.60;;;;;;5108676;28;20435;-65
2021/04/02 01:21:36;;;;;;;11.23;4.40;;;4.60;91.20;;;;;;5108360;28;20354;-65
2021/04/02 01:24:11;;;;;;;15.40;5.03;;;4.60;90.90;;;;;;5108090;28;20320;-66
2021/04/02 01:27:07;;;;;;;13.87;4.67;;;4.70;91.10;;;;;;5109060;28;20304;-66
2021/04/02 01:29:56;;;;;;;11.90;5.17;;;4.70;91.20;;;;;;5108822;28;20926;-65
2021/04/02 01:32:34;;;;;;;9.57;3.93;;;4.80;91.10;;;;;;5108252;28;20326;-66
2021/04/02 01:35:18;;;;;;;10.03;4.13;;;4.90;91.00;;;;;;5108969;28;20722;-66
2021/04/02 01:37:52;;;;;;;7.60;3.57;;;4.90;90.80;;;;;;5107898;28;20308;-66
2021/04/02 01:40:19;;;;;;;10.77;3.30;;;5.00;90.50;;;;;;5108258;28;20357;-66
2021/04/02 01:42:47;;;;;;;9.70;3.03;;;5.00;90.50;;;;;;5108876;28;20777;-66
2021/04/02 01:45:17;;;;;;;10.23;2.80;;;5.10;90.30;;;;;;5107447;28;20877;-66
2021/04/02 01:47:43;;;;;;;7.77;2.93;;;5.10;90.20;;;;;;5108166;28;20350;-66
2021/04/02 01:50:13;;;;;;;11.27;2.60;;;5.10;90.30;;;;;;5108577;28;20336;-66
2021/04/02 01:52:40;;;;;;;9.30;3.00;;;5.10;90.10;;;;;;5107671;28;20393;-66
2021/04/02 01:55:09;;;;;;;6.43;2.80;;;5.10;90.10;;;;;;5108638;28;20335;-66
2021/04/02 01:57:36;;;;;;;9.43;2.90;;;5.10;90.00;;;;;;5108149;28;20297;-66
2021/04/02 02:00:14;;;;;;;11.67;3.70;;;5.10;90.00;;;;;;5108135;28;20358;-66
2021/04/02 02:02:41;;;;;;;9.10;3.33;;;5.10;90.00;;;;;;5108757;28;20495;-66
2021/04/02 02:05:08;;;;;;;10.60;3.60;;;5.00;90.00;;;;;;5108868;28;20354;-66
2021/04/02 02:07:38;;;;;;;8.70;3.17;;;5.00;90.00;;;;;;5107598;28;20677;-66
2021/04/02 02:10:05;;;;;;;7.17;3.17;;;5.00;89.90;;;;;;5108838;28;20358;-66
2021/04/02 02:12:33;;;;;;;10.70;3.13;;;4.90;90.00;;;;;;5107303;28;20305;-66
2021/04/02 02:15:00;;;;;;;11.60;3.60;;;4.90;90.00;;;;;;5108377;28;20742;-66
2021/04/02 02:17:27;;;;;;;10.13;3.63;;;4.80;90.00;;;;;;5108122;28;20438;-66
2021/04/02 02:19:54;;;;;;;14.63;3.80;;;4.70;90.10;;;;;;5108048;28;20317;-65
2021/04/02 02:22:21;;;;;;;13.67;4.40;;;4.70;90.20;;;;;;5108005;28;20286;-65
2021/04/02 02:24:47;;;;;;;11.17;3.67;;;4.60;90.20;;;;;;5107989;28;20671;-65
2021/04/02 02:27:13;;;;;;;10.53;3.33;;;4.60;90.20;;;;;;5107116;28;20305;-65
2021/04/02 02:29:39;;;;;;;11.57;3.20;;;4.60;90.40;;;;;;5108515;28;20297;-65
2021/04/02 02:32:06;;;;;;;11.70;3.47;;;4.50;90.50;;;;;;5108073;28;20050;-65
2021/04/02 02:34:32;;;;;;;13.27;3.20;;;4.50;90.40;;;;;;5088883;28;20305;-66
2021/04/02 02:37:02;;;;;;;15.47;3.90;;;4.50;90.50;;;;;;5108747;28;20354;-65
2021/04/02 02:39:28;;;;;;;17.80;3.93;;;4.40;90.50;;;;;;5107445;28;20079;-66
2021/04/02 02:41:54;;;;;;;11.23;3.70;;;4.40;90.50;;;;;;5107678;28;20301;-65
2021/04/02 02:44:21;;;;;;;11.97;3.17;;;4.40;90.50;;;;;;5108310;28;20301;-65
2021/04/02 02:46:46;;;;;;;10.87;3.93;;;4.40;90.60;;;;;;5108190;28;20293;-67
2021/04/02 02:49:15;;;;;;;12.20;3.53;;;4.40;90.70;;;;;;5107028;28;20312;-67
2021/04/02 02:51:43;;;;;;;9.63;3.73;;;4.40;90.50;;;;;;5107803;28;20131;-66
2021/04/02 02:54:15;;;;;;;14.23;3.47;;;4.40;90.40;;;;;;5107923;28;20358;-66
2021/04/02 02:56:43;;;;;;;10.57;3.93;;;4.50;90.60;;;;;;5107747;28;20296;-66
2021/04/02 02:59:20;;;;;;;15.23;2.50;;;4.50;90.50;;;;;;5107690;28;20309;-66
2021/04/02 03:01:47;;;;;;;13.83;3.40;;;4.60;90.50;;;;;;5107149;28;20097;-67
2021/04/02 03:04:15;;;;;;;8.87;2.57;;;4.60;90.40;;;;;;5109761;28;20305;-66
2021/04/02 03:06:42;;;;;;;10.63;2.57;;;4.60;90.50;;;;;;5111695;28;20293;-66
2021/04/02 03:09:11;;;;;;;11.33;3.27;;;4.70;90.30;;;;;;5110509;28;20380;-66
2021/04/02 03:11:40;;;;;;;13.63;3.40;;;4.70;90.40;;;;;;5111215;28;20285;-67
2021/04/02 03:14:07;;;;;;;14.97;3.23;;;4.70;90.50;;;;;;5111529;28;20305;-66
2021/04/02 03:16:41;;;;;;;11.17;3.17;;;4.80;90.40;;;;;;5110471;28;20806;-66
2021/04/02 03:19:07;;;;;;;16.30;3.50;;;4.80;90.40;;;;;;5111765;28;20313;-66
2021/04/02 03:21:34;;;;;;;9.53;2.83;;;4.90;90.30;;;;;;5111097;28;20332;-66
2021/04/02 03:24:00;;;;;;;13.27;2.97;;;4.90;90.20;;;;;;5110989;28;20301;-67
2021/04/02 03:26:26;;;;;;;20.67;3.90;;;5.00;90.20;;;;;;5111059;28;20346;-66
2021/04/02 03:28:53;;;;;;;13.83;4.20;;;5.00;90.00;;;;;;5111311;28;20303;-66
2021/04/02 03:31:22;;;;;;;12.77;2.33;;;5.10;90.00;;;;;;5110175;28;20297;-66
2021/04/02 03:33:53;;;;;;;16.70;3.67;;;5.20;89.50;;;;;;5111386;28;20707;-67
2021/04/02 03:36:20;;;;;;;11.70;2.88;;;5.20;89.30;;;;;;5110786;28;20290;-66
2021/04/02 03:38:48;;;;;;;16.70;3.10;;;5.30;89.20;;;;;;5109945;28;20488;-66
2021/04/02 03:41:19;;;;;;;9.10;2.63;;;5.30;89.00;;;;;;5110766;28;20720;-67
2021/04/02 03:43:47;;;;;;;12.67;3.30;;;5.40;89.20;;;;;;5110567;28;20308;-67
2021/04/02 03:46:14;;;;;;;19.80;2.80;;;5.40;89.20;;;;;;5110397;28;20297;-67
2021/04/02 03:48:42;;;;;;;13.00;2.80;;;5.40;89.20;;;;;;5092110;28;20384;-66
2021/04/02 03:51:11;;;;;;;16.17;2.87;;;5.50;89.30;;;;;;5110345;28;20336;-66
2021/04/02 03:53:58;;;;;;;12.47;2.90;;;5.50;89.10;;;;;;5110981;28;20419;-67
2021/04/02 03:56:31;;;;;;;14.87;3.07;;;5.40;88.90;;;;;;5110664;28;20304;-67
2021/04/02 03:58:58;;;;;;;11.27;2.20;;;5.50;88.80;;;;;;5109935;28;21151;-66
2021/04/02 04:01:27;;;;;;;10.13;2.00;;;5.40;88.10;;;;;;5110173;28;20399;-66
2021/04/02 04:03:56;;;;;;;9.50;1.90;;;5.40;88.00;;;;;;5111117;28;20351;-66
2021/04/02 04:06:23;;;;;;;7.87;2.67;;;5.50;87.70;;;;;;5109454;28;20293;-66
2021/04/02 04:08:54;;;;;;;9.10;2.30;;;5.50;87.70;;;;;;5110281;28;20286;-67
2021/04/02 04:11:23;;;;;;;9.83;2.10;;;5.50;87.30;;;;;;5110131;28;20378;-67
2021/04/02 04:13:50;;;;;;;8.87;2.40;;;5.50;86.70;;;;;;5109514;28;20297;-66
2021/04/02 04:16:20;;;;;;;9.80;1.77;;;5.50;86.10;;;;;;5110035;28;20301;-66
2021/04/02 04:18:48;;;;;;;11.20;2.57;;;5.50;85.20;;;;;;5109907;28;20401;-67
2021/04/02 04:21:15;;;;;;;6.17;2.00;;;5.50;84.90;;;;;;5109202;28;20415;-67
2021/04/02 04:23:42;;;;;;;10.37;2.27;;;5.50;85.10;;;;;;5110214;28;20286;-67
2021/04/02 04:26:10;;;;;;;9.93;2.33;;;5.60;85.20;;;;;;5109453;28;20811;-66
2021/04/02 04:28:38;;;;;;;9.83;2.13;;;5.60;85.30;;;;;;5110043;28;20293;-66
2021/04/02 04:31:08;;;;;;;10.40;2.37;;;5.50;85.20;;;;;;5110192;28;20297;-67
2021/04/02 04:33:34;;;;;;;9.47;2.30;;;5.50;84.70;;;;;;5109226;28;20301;-67
2021/04/02 04:36:01;;;;;;;12.97;3.43;;;5.50;84.70;;;;;;5109914;28;20297;-67
2021/04/02 04:38:28;;;;;;;11.13;2.77;;;5.60;84.80;;;;;;5109117;28;20323;-66
2021/04/02 04:40:55;;;;;;;10.47;2.80;;;5.60;84.70;;;;;;5109681;28;20384;-67
2021/04/02 04:43:23;;;;;;;11.57;4.07;;;5.50;84.80;;;;;;5109331;28;20301;-67
2021/04/02 04:45:49;;;;;;;15.60;3.93;;;5.50;84.90;;;;;;5109355;28;20951;-66
2021/04/02 04:48:15;;;;;;;13.63;2.30;;;5.50;84.20;;;;;;5108295;28;20309;-66
2021/04/02 04:50:41;;;;;;;10.33;2.43;;;5.50;84.20;;;;;;5109712;28;20130;-66
2021/04/02 04:53:19;;;;;;;6.70;2.57;;;5.50;84.30;;;;;;5109425;28;20044;-66
2021/04/02 04:55:46;;;;;;;10.33;2.30;;;5.50;84.30;;;;;;5108404;28;20667;-65
2021/04/02 04:58:17;;;;;;;11.50;4.03;;;5.50;84.20;;;;;;5109051;28;20297;-65
2021/04/02 05:00:44;;;;;;;10.93;2.08;;;5.50;83.60;;;;;;5109454;28;20319;-65
2021/04/02 05:03:14;;;;;;;9.97;1.83;;;5.50;83.20;;;;;;5109020;28;20528;-65
2021/04/02 05:05:42;;;;;;;7.90;1.33;;;5.50;82.60;;;;;;5108877;28;20686;-66
2021/04/02 05:08:12;;;;;;;3.87;1.23;;;5.50;82.40;;;;;;5108323;28;20797;-65
2021/04/02 05:10:40;;;;;;;9.03;2.10;;;5.50;82.00;;;;;;5109347;28;20305;-65
2021/04/02 05:13:06;;;;;;;6.43;1.67;;;5.50;81.70;;;;;;5109205;28;20297;-65
2021/04/02 05:15:32;;;;;;;6.23;2.03;;;5.50;81.80;;;;;;5107777;28;20297;-65
2021/04/02 05:17:59;;;;;;;7.90;1.80;;;5.50;81.80;;;;;;5109323;28;20321;-65
2021/04/02 05:20:38;;;;;;;17.27;2.80;;;5.50;82.00;;;;;;5108597;28;20792;-65
2021/04/02 05:23:04;;;;;;;9.10;1.93;;;5.50;82.10;;;;;;5108355;28;20293;-65
2021/04/02 05:25:29;;;;;;;11.40;1.80;;;5.50;82.40;;;;;;5107956;28;20301;-66
2021/04/02 05:27:55;;;;;;;9.07;1.50;;;5.50;82.40;;;;;;5108745;28;20055;-66
2021/04/02 05:30:21;;;;;;;11.30;2.13;;;5.50;82.40;;;;;;5099356;28;20499;-66
2021/04/02 05:32:47;;;;;;;7.30;2.50;;;5.50;82.60;;;;;;5098864;28;20306;-66
2021/04/02 05:35:13;;;;;;;16.83;2.20;;;5.50;82.60;;;;;;5097227;28;20294;-66
2021/04/02 05:37:39;;;;;;;8.70;1.87;;;5.50;82.60;;;;;;5097945;28;20491;-66
2021/04/02 05:40:05;;;;;;;7.57;2.00;;;5.50;82.70;;;;;;5098699;28;20094;-66
2021/04/02 05:42:32;;;;;;;12.87;3.03;;;5.50;82.90;;;;;;5096359;28;20044;-66
2021/04/02 05:44:59;;;;;;;9.93;2.93;;;5.60;83.00;;;;;;5097683;28;20805;-67
2021/04/02 05:47:26;;;;;;;8.30;2.07;;;5.60;83.00;;;;;;5098600;28;20302;-66
2021/04/02 05:49:55;;;;;;;9.20;1.73;;;5.60;82.90;;;;;;5097085;28;20302;-65
2021/04/02 05:52:24;;;;;;;12.50;3.07;;;5.60;82.70;;;;;;5096815;28;20293;-66
2021/04/02 05:54:51;;;;;;;12.90;2.50;;;5.70;82.30;;;;;;5099164;28;20327;-66
2021/04/02 05:57:18;;;;;;;8.80;2.63;;;5.60;82.10;;;;;;5096935;28;20294;-66
2021/04/02 05:59:44;;;;;;;9.47;2.43;;;5.70;82.30;;;;;;5096320;28;20309;-66
2021/04/02 06:02:14;;;;;;;12.50;1.90;;;5.70;82.30;;;;;;5098716;28;20346;-66
2021/04/02 06:04:40;;;;;;;12.07;2.60;;;5.70;82.00;;;;;;5097264;28;20064;-66
2021/04/02 06:07:06;;;;;;;8.87;2.50;;;5.70;81.70;;;;;;5097122;28;20339;-66
2021/04/02 06:09:32;;;;;;;10.83;1.83;;;5.70;81.30;;;;;;5098550;28;20051;-66
2021/04/02 06:11:57;;;;;;;12.67;2.57;;;5.70;81.00;;;;;;5096538;28;20512;-66
2021/04/02 06:14:23;;;;;;;9.30;1.93;;;5.70;80.80;;;;;;5099228;28;20051;-66
2021/04/02 06:16:50;;;;;;;9.57;2.10;;;5.70;80.60;;;;;;5096096;28;20497;-66
2021/04/02 06:19:16;;;;;;;7.33;2.40;;;5.70;80.30;;;;;;5101453;28;20301;-66
2021/04/02 06:21:55;;;;;;;8.67;2.07;;;5.70;80.20;;;;;;5097338;28;20312;-66
2021/04/02 06:24:39;;;;;;;7.03;2.23;;;5.70;80.40;;;;;;5097134;28;20109;-67
2021/04/02 06:27:08;;;;;;;10.63;2.57;;;5.70;79.70;;;;;;5096865;28;20727;-66
2021/04/02 06:29:44;;;;;;;9.93;2.67;;;5.80;79.60;;;;;;5096291;28;20281;-66
2021/04/02 06:32:14;;;;;;;10.73;2.33;;;5.70;79.40;;;;;;5098147;28;20297;-65
2021/04/02 06:34:45;;;;;;;9.82;2.42;;;5.80;79.60;;;;;;5096240;28;20297;-65
2021/04/02 06:37:11;;;;;;;8.70;1.90;;;5.80;79.60;;;;;;5102740;28;20098;-65
2021/04/02 06:39:37;;;;;;;20.43;3.43;;;5.80;79.60;;;;;;5100612;28;20309;-65
2021/04/02 06:42:07;;;;;;;10.53;2.07;;;5.80;79.70;;;;;;5100241;28;20047;-65
2021/04/02 06:44:33;;;;;;;11.00;2.73;;;5.90;79.70;;;;;;5101008;28;20048;-65
2021/04/02 06:46:59;;;;;;;7.50;2.07;;;5.90;79.70;;;;;;5100772;28;20657;-65
2021/04/02 06:49:26;;;;;;;11.63;2.57;;;5.90;79.30;;;;;;5099817;28;20068;-65
2021/04/02 06:51:53;;;;;;;9.47;2.33;;;5.90;78.60;;;;;;5100152;28;20166;-65
2021/04/02 06:54:25;;;;;;;12.33;2.23;;;5.90;79.00;;;;;;5095848;28;20302;-65
2021/04/02 06:57:05;;;;;;;7.83;1.93;;;5.90;78.30;;;;;;5106605;28;20325;-65
2021/04/02 06:59:34;;;;;;;9.33;2.80;;;5.90;77.40;;;;;;5101376;28;20562;-65
2021/04/02 07:02:04;;;;;;;8.50;2.60;;;5.90;77.70;;;;;;5101846;28;20297;-65
2021/04/02 07:04:33;;;;;;;8.80;2.20;;;6.00;78.20;;;;;;5103409;28;21195;-66
2021/04/02 07:07:01;;;;;;;11.87;2.20;;;6.10;78.50;;;;;;5099730;28;20306;-66
2021/04/02 07:09:28;;;;;;;8.17;1.83;;;6.10;78.10;;;;;;5100508;28;20650;-67
2021/04/02 07:12:02;;;;;;;13.50;2.00;;;6.20;77.90;;;;;;5102381;28;20293;-66
2021/04/02 07:14:31;;;;;;;13.03;2.43;;;6.30;78.00;;;;;;5096098;28;20790;-66
2021/04/02 07:16:57;;;;;;;12.80;2.27;;;6.40;77.90;;;;;;5090588;28;20306;-66
2021/04/02 07:19:23;;;;;;;10.77;2.83;;;6.40;77.20;;;;;;5090848;28;20322;-67
2021/04/02 07:21:50;;;;;;;13.67;2.40;;;6.40;77.50;;;;;;5090164;28;20301;-66
2021/04/02 07:24:20;;;;;;;9.53;2.40;;;6.40;77.30;;;;;;5092849;28;20333;-66
2021/04/02 07:26:47;;;;;;;8.83;2.40;;;6.40;76.70;;;;;;5099973;28;20302;-66
2021/04/02 07:29:15;;;;;;;9.73;3.00;;;6.30;76.80;;;;;;5098418;28;20308;-66
2021/04/02 07:31:41;;;;;;;16.03;3.07;;;6.30;77.10;;;;;;5099838;28;20786;-66
2021/04/02 07:34:08;;;;;;;13.40;2.70;;;6.40;77.20;;;;;;5100122;28;20305;-66
2021/04/02 07:36:37;;;;;;;8.87;2.17;;;6.30;77.20;;;;;;5103769;28;20302;-67
2021/04/02 07:39:05;;;;;;;9.80;2.20;;;6.40;76.50;;;;;;5101131;28;20320;-66
2021/04/02 07:41:37;;;;;;;12.70;2.80;;;6.40;76.90;;;;;;5099320;28;20355;-66
2021/04/02 07:44:06;;;;;;;10.23;1.95;;;6.40;76.50;;;;;;5098311;28;20635;-65
2021/04/02 07:46:32;;;;;;;16.47;2.17;;;6.50;76.00;;;;;;5100042;28;20069;-66
2021/04/02 07:49:17;;;;;;;7.23;2.10;;;6.50;75.60;;;;;;5084701;28;20282;-66
2021/04/02 07:51:49;;;;;;;9.63;1.63;;;6.50;75.60;;;;;;5098358;28;20794;-66
2021/04/02 07:54:18;;;;;;;12.27;2.10;;;6.60;75.50;;;;;;5101878;28;20475;-66
2021/04/02 07:56:52;;;;;;;12.63;1.80;;;6.70;75.30;;;;;;5098512;28;20470;-66
2021/04/02 07:59:18;;;;;;;10.63;2.60;;;6.70;74.80;;;;;;5098235;28;20317;-66
2021/04/02 08:02:03;;;;;;;12.40;2.10;;;6.70;74.20;;;;;;5103776;28;20371;-66
2021/04/02 08:04:37;;;;;;;8.17;2.03;;;6.60;74.40;;;;;;5097832;28;20302;-66
2021/04/02 08:07:04;;;;;;;12.57;2.33;;;6.50;74.50;;;;;;5101162;28;20817;-66
2021/04/02 08:09:31;;;;;;;8.93;1.80;;;6.60;74.90;;;;;;5098284;28;20290;-66
2021/04/02 08:12:00;;;;;;;14.43;1.83;;;6.60;74.80;;;;;;5099043;28;20314;-66
2021/04/02 08:14:36;;;;;;;8.03;2.17;;;6.60;74.90;;;;;;5100121;28;20765;-66
2021/04/02 08:17:07;;;;;;;9.23;2.30;;;6.70;75.10;;;;;;5106058;28;20806;-66
2021/04/02 08:19:38;;;;;;;12.05;2.55;;;6.70;75.20;;;;;;5108830;28;20320;-66
2021/04/02 08:22:03;;;;;;;13.20;2.57;;;6.70;74.80;;;;;;5110455;28;20050;-66
2021/04/02 08:24:44;;;;;;;17.97;2.90;;;6.70;74.60;;;;;;5109839;28;20305;-66
2021/04/02 08:27:11;;;;;;;10.20;2.47;;;6.70;74.60;;;;;;5109528;28;20046;-66
2021/04/02 08:29:39;;;;;;;7.10;1.80;;;6.80;75.20;;;;;;5109352;28;20304;-66
2021/04/02 08:32:07;;;;;;;11.77;2.47;;;6.90;74.90;;;;;;5109686;28;20313;-66
2021/04/02 08:34:35;;;;;;;11.17;2.17;;;7.00;74.40;;;;;;5109058;28;20384;-67
2021/04/02 08:37:04;;;;;;;13.97;2.10;;;7.10;74.40;;;;;;5109649;28;20302;-66
2021/04/02 08:39:30;;;;;;;8.93;2.33;;;7.20;74.40;;;;;;5108227;28;20317;-67
2021/04/02 08:42:02;;;;;;;9.63;2.17;;;7.20;74.20;;;;;;5110052;28;20358;-67
2021/04/02 08:44:31;;;;;;;14.07;2.23;;;7.30;74.00;;;;;;5108998;28;20062;-67
2021/04/02 08:46:59;;;;;;;11.07;2.20;;;7.40;73.20;;;;;;5090257;28;20289;-67
2021/04/02 08:49:25;;;;;;;15.23;2.37;;;7.40;73.40;;;;;;5109033;28;20301;-66
2021/04/02 08:51:52;;;;;;;8.33;1.77;;;7.30;72.80;;;;;;5109535;28;20293;-66
2021/04/02 08:54:21;;;;;;;7.50;2.23;;;7.30;72.90;;;;;;5108098;28;20301;-66
2021/04/02 08:56:49;;;;;;;9.87;2.17;;;7.20;72.40;;;;;;5109324;28;20300;-66
2021/04/02 08:59:16;;;;;;;10.67;1.93;;;7.20;72.30;;;;;;5109083;28;20316;-66
2021/04/02 09:01:48;;;;;;;8.13;2.03;;;7.40;72.20;;;;;;5107832;28;20397;-66
2021/04/02 09:04:16;;;;;;;10.90;2.35;;;7.40;72.10;;;;;;5108643;28;20309;-66
2021/04/02 09:06:45;;;;;;;11.00;2.10;;;7.40;72.10;;;;;;5108594;28;20051;-66
2021/04/02 09:09:19;;;;;;;10.17;2.17;;;7.40;72.10;;;;;;5100717;28;20404;-66
2021/04/02 09:11:55;;;;;;;9.50;1.77;;;7.40;72.40;;;;;;5099041;28;20065;-66
2021/04/02 09:14:22;;;;;;;16.03;2.20;;;7.40;72.50;;;;;;5098269;28;21593;-66
2021/04/02 09:16:53;;;;;;;9.70;1.73;;;7.40;72.20;;;;;;5097246;28;20298;-66
2021/04/02 09:19:21;;;;;;;10.18;2.85;;;7.40;72.30;;;;;;5097573;28;20396;-66
2021/04/02 09:21:47;;;;;;;9.17;2.43;;;7.50;72.70;;;;;;5087497;28;20079;-66
2021/04/02 09:24:12;;;;;;;11.40;1.93;;;7.50;72.40;;;;;;5087899;28;20302;-66
2021/04/02 09:26:41;;;;;;;11.83;2.53;;;7.50;72.80;;;;;;5088015;28;20651;-66
2021/04/02 09:29:08;;;;;;;5.93;1.50;;;7.50;72.90;;;;;;5087856;28;20048;-67
2021/04/02 09:31:37;;;;;;;9.97;2.10;;;7.40;73.40;;;;;;5088318;28;20326;-66
2021/04/02 09:34:08;;;;;;;8.07;2.03;;;7.30;74.00;;;;;;5088349;28;20345;-66
2021/04/02 09:36:40;;;;;;;10.60;2.03;;;7.30;74.50;;;;;;5087105;28;20302;-67
2021/04/02 09:39:24;;;;;;;10.13;1.63;;;7.20;74.50;;;;;;5088845;28;20306;-67
2021/04/02 09:41:55;;;;;;;12.43;2.77;;;7.10;75.00;;;;;;5087931;28;20297;-67
2021/04/02 09:44:24;;;;;;;10.70;1.95;;;7.10;75.40;;;;;;5087040;28;20302;-66
2021/04/02 09:46:51;;;;;;;13.03;2.40;;;7.10;75.50;;;;;;5088000;28;20139;-67
2021/04/02 09:49:20;;;;;;;11.33;2.40;;;7.00;75.80;;;;;;5093609;28;20305;-66
2021/04/02 09:51:54;;;;;;;11.80;2.30;;;7.00;75.90;;;;;;5094898;28;20313;-66
2021/04/02 09:54:21;;;;;;;11.60;2.10;;;7.00;75.90;;;;;;5097414;28;20290;-67
2021/04/02 09:56:48;;;;;;;12.17;2.40;;;7.00;75.90;;;;;;5090205;28;20760;-66
2021/04/02 09:59:14;;;;;;;10.80;1.93;;;7.00;76.40;;;;;;5088004;28;21001;-67
2021/04/02 10:01:41;;;;;;;9.77;2.17;;;7.00;77.70;;;;;;5087650;28;20294;-67
2021/04/02 10:04:09;;;;;;;11.97;3.27;;;7.00;77.00;;;;;;5087575;28;20302;-67
2021/04/02 10:06:35;;;;;;;11.97;3.00;;;7.00;77.20;;;;;;5095397;28;20306;-66
2021/04/02 10:09:04;;;;;;;15.13;2.50;;;7.10;77.50;;;;;;5096309;28;20302;-66
2021/04/02 10:11:32;;;;;;;13.33;2.70;;;7.00;78.10;;;;;;5095130;28;20297;-66
2021/04/02 10:13:58;;;;;;;11.30;2.40;;;7.00;78.40;;;;;;5105372;28;20300;-67
2021/04/02 10:16:23;;;;;;;12.03;2.57;;;7.00;78.70;;;;;;5100592;28;20290;-66
2021/04/02 10:18:50;;;;;;;14.53;3.10;;;6.80;79.00;;;;;;5095915;28;20064;-67
2021/04/02 10:21:21;;;;;;;9.97;3.00;;;6.80;79.70;;;;;;5100690;28;20052;-66
2021/04/02 10:23:47;;;;;;;12.85;2.67;;;6.80;79.70;;;;;;5094104;28;20301;-66
2021/04/02 10:26:13;;;;;;;7.60;1.90;;;6.80;79.70;;;;;;5090796;28;20109;-67
2021/04/02 10:28:39;;;;;;;10.87;2.60;;;6.80;79.30;;;;;;5091483;28;20294;-67
2021/04/02 10:31:05;;;;;;;8.17;2.23;;;6.90;79.20;;;;;;5091620;28;20378;-68
2021/04/02 10:33:31;;;;;;;13.30;2.43;;;7.00;78.90;;;;;;5103948;28;20047;-69
2021/04/02 10:35:57;;;;;;;10.43;2.30;;;7.20;77.80;;;;;;5111542;28;20678;-66
2021/04/02 10:38:23;;;;;;;10.33;2.37;;;7.20;76.90;;;;;;5112046;28;20062;-67
2021/04/02 10:40:49;;;;;;;10.07;3.03;;;7.30;76.40;;;;;;5111203;28;20048;-67
2021/04/02 10:43:15;;;;;;;5.93;1.80;;;7.20;75.90;;;;;;5112046;28;20289;-67
2021/04/02 10:45:41;;;;;;;7.80;2.30;;;7.20;76.10;;;;;;5111377;28;20067;-67
2021/04/02 10:48:07;;;;;;;14.97;2.23;;;7.20;75.90;;;;;;5110888;28;20048;-66
2021/04/02 10:50:35;;;;;;;9.73;2.63;;;7.30;75.10;;;;;;5111035;28;20297;-68
2021/04/02 10:53:01;;;;;;;10.87;2.00;;;7.20;75.10;;;;;;5112678;28;20305;-66
2021/04/02 10:55:26;;;;;;;8.53;1.70;;;7.30;74.60;;;;;;5114218;28;20327;-66
2021/04/02 10:57:54;;;;;;;8.67;2.40;;;7.30;74.30;;;;;;5114827;28;20047;-66
2021/04/02 11:00:21;;;;;;;10.43;2.17;;;7.40;74.00;;;;;;5113644;28;20048;-66
2021/04/02 11:02:47;;;;;;;9.40;2.17;;;7.50;73.00;;;;;;5114565;28;20328;-66
2021/04/02 11:05:13;;;;;;;9.10;1.83;;;7.50;72.70;;;;;;5114494;28;20746;-66
2021/04/02 11:07:39;;;;;;;11.93;3.53;;;7.60;72.10;;;;;;5113717;28;20127;-66
2021/04/02 11:10:07;;;;;;;13.33;6.03;;;7.60;72.50;;;;;;5114684;28;20301;-66
2021/04/02 11:12:32;;;;;;;10.73;3.67;;;7.50;72.90;;;;;;5114144;28;20293;-66
2021/04/02 11:14:59;;;;;;;10.97;4.87;;;7.40;73.20;;;;;;5113485;28;20830;-66
2021/04/02 11:17:25;;;;;;;5.77;2.73;;;7.40;73.70;;;;;;5114301;28;20044;-66
2021/04/02 11:19:53;;;;;;;10.13;2.60;;;7.40;73.80;;;;;;5114200;28;20670;-66
2021/04/02 11:22:19;;;;;;;9.67;2.30;;;7.30;74.10;;;;;;5113205;28;20304;-66
2021/04/02 11:24:45;;;;;;;10.07;2.10;;;7.20;74.50;;;;;;5113110;28;20295;-66
2021/04/02 11:27:11;;;;;;;8.00;2.13;;;7.20;74.70;;;;;;5114194;28;20062;-65
2021/04/02 11:29:37;;;;;;;10.40;2.60;;;7.10;75.50;;;;;;5113400;28;20297;-66
2021/04/02 11:32:08;;;;;;;9.70;2.43;;;7.10;74.30;;;;;;5113893;28;20091;-65
2021/04/02 11:34:35;;;;;;;9.60;2.37;;;7.20;74.80;;;;;;5113093;28;20297;-66
2021/04/02 11:37:00;;;;;;;11.87;2.40;;;7.20;74.30;;;;;;5104229;28;20341;-65
2021/04/02 11:39:27;;;;;;;5.87;1.87;;;7.40;74.70;;;;;;5098355;28;20302;-65
2021/04/02 11:41:53;;;;;;;9.43;2.13;;;7.50;74.20;;;;;;5093743;28;20410;-66
2021/04/02 11:44:20;;;;;;;6.53;1.63;;;7.50;73.60;;;;;;5103577;28;20294;-66
2021/04/02 11:46:46;;;;;;;10.63;2.40;;;7.60;73.50;;;;;;5102506;28;20071;-66
2021/04/02 11:49:11;;;;;;;9.60;1.83;;;7.60;72.20;;;;;;5106218;28;20300;-66
2021/04/02 11:51:37;;;;;;;9.47;1.90;;;7.70;71.80;;;;;;5113804;28;20301;-66
2021/04/02 11:54:03;;;;;;;13.30;2.70;;;7.60;71.40;;;;;;5113749;28;20047;-66
2021/04/02 11:56:29;;;;;;;7.60;2.00;;;7.60;71.40;;;;;;5112469;28;20043;-66
2021/04/02 11:58:54;;;;;;;10.73;2.53;;;7.60;71.50;;;;;;5113662;28;20293;-66
2021/04/02 12:01:21;;;;;;;9.90;1.83;;;7.60;70.90;;;;;;5113373;28;20051;-66
2021/04/02 12:03:47;;;;;;;10.03;2.13;;;7.70;70.40;;;;;;5112675;28;20048;-66
2021/04/02 12:06:13;;;;;;;6.00;1.87;;;7.70;69.10;;;;;;5113014;28;20392;-66
2021/04/02 12:08:38;;;;;;;6.33;1.80;;;7.70;68.40;;;;;;5113229;28;20044;-66
2021/04/02 12:11:05;;;;;;;7.70;2.20;;;7.70;68.00;;;;;;5112643;28;20477;-66
2021/04/02 12:13:30;;;;;;;8.60;2.37;;;7.70;67.80;;;;;;5111229;28;20528;-67
2021/04/02 12:15:56;;;;;;;15.13;5.10;;;7.70;68.00;;;;;;5110725;28;20304;-66
2021/04/02 12:18:22;;;;;;;10.00;3.07;;;7.80;68.60;;;;;;5112325;28;20184;-66
2021/04/02 12:20:48;;;;;;;5.13;1.50;;;8.00;68.60;;;;;;5112764;28;20104;-66
2021/04/02 12:23:14;;;;;;;12.27;3.50;;;8.20;67.20;;;;;;5106012;28;20368;-67
2021/04/02 12:25:40;;;;;;;11.90;4.67;;;8.20;66.40;;;;;;5094653;28;20520;-67
2021/04/02 12:28:06;;;;;;;4.83;1.50;;;8.30;65.10;;;;;;5092793;28;20491;-67
2021/04/02 12:30:32;;;;;;;12.60;4.67;;;8.40;65.60;;;;;;5091846;28;20143;-67
2021/04/02 12:32:58;;;;;;;6.07;2.10;;;8.60;65.10;;;;;;5091942;28;20436;-67
2021/04/02 12:35:24;;;;;;;8.27;2.77;;;8.80;63.50;;;;;;5092102;28;20105;-67
2021/04/02 12:37:50;;;;;;;4.47;1.83;;;8.90;63.40;;;;;;5092402;28;20301;-67
2021/04/02 12:40:19;;;;;;;7.63;2.83;;;8.90;62.80;;;;;;5091392;28;20309;-67
2021/04/02 12:42:45;;;;;;;10.20;3.53;;;8.90;62.50;;;;;;5092124;28;20488;-67
2021/04/02 12:45:12;;;;;;;8.13;2.03;;;8.90;62.70;;;;;;5092427;28;20655;-67
2021/04/02 12:47:39;;;;;;;6.80;1.60;;;8.90;62.40;;;;;;5091086;28;20383;-66
2021/04/02 12:50:10;;;;;;;8.30;1.30;;;9.00;63.00;;;;;;5092328;28;20365;-66
2021/04/02 12:52:36;;;;;;;9.77;1.73;;;9.00;61.30;;;;;;5091286;28;20297;-66
2021/04/02 12:55:04;;;;;;;7.57;1.77;;;9.00;62.50;;;;;;5092189;28;20054;-67